Time;durP1;ratioP1;P1;durP2;ratioP2;P2;SDS_P1;SDS_P2;PMS_P1;PMS_P2;Temp;Humidity;BMP_temperature;BMP_pressure;BME280_temperature;BME280_humidity;BME280_pressure;Samples;Min_cycle;Max_cycle;Signal;HPM_P1;HPM_P2
2023/01/24 00:01:26;;;;;;;14.52;9.40;;;;;;;;;;5000349;28;20112;-89
2023/01/24 00:03:52;;;;;;;17.50;10.50;;;;;;;;;;5000136;28;20832;-87
2023/01/24 00:06:18;;;;;;;15.10;8.90;;;;;;;;;;5000451;28;20075;-88
2023/01/24 00:08:47;;;;;;;16.63;9.35;;;;;;;;;;5000397;28;20034;-91
2023/01/24 00:11:14;;;;;;;16.38;10.13;;;;;;;;;;5000846;28;20026;-91
2023/01/24 00:13:40;;;;;;;15.27;9.75;;;;;;;;;;5001708;28;20038;-88
2023/01/24 00:16:08;;;;;;;15.40;9.65;;;;;;;;;;5004169;28;20069;-87
2023/01/24 00:18:34;;;;;;;17.60;9.52;;;;;;;;;;5015497;28;20105;-87
2023/01/24 00:21:01;;;;;;;15.07;9.27;;;;;;;;;;5000688;28;20146;-90
2023/01/24 00:23:27;;;;;;;16.80;9.52;;;;;;;;;;4999477;28;20022;-88
2023/01/24 00:25:53;;;;;;;15.55;8.38;;;;;;;;;;5016836;28;20029;-89
2023/01/24 00:28:19;;;;;;;15.65;9.60;;;;;;;;;;4999299;28;20034;-88
2023/01/24 00:30:46;;;;;;;17.98;10.27;;;;;;;;;;4999370;28;20025;-88
2023/01/24 00:33:12;;;;;;;17.02;10.23;;;;;;;;;;4999528;28;20112;-90
2023/01/24 00:35:38;;;;;;;17.25;9.85;;;;;;;;;;4999415;28;20022;-90
2023/01/24 00:38:04;;;;;;;15.10;9.60;;;;;;;;;;4998860;28;20137;-88
2023/01/24 00:40:30;;;;;;;18.15;9.95;;;;;;;;;;5016523;28;20205;-89
2023/01/24 00:42:56;;;;;;;16.42;10.00;;;;;;;;;;4998950;28;20041;-88
2023/01/24 00:45:22;;;;;;;16.13;10.35;;;;;;;;;;4999144;28;20026;-89
2023/01/24 00:47:48;;;;;;;15.43;9.80;;;;;;;;;;5000975;28;20030;-91
2023/01/24 00:50:19;;;;;;;16.58;9.82;;;;;;;;;;4999406;28;20029;-88
2023/01/24 00:52:51;;;;;;;16.50;9.68;;;;;;;;;;4998827;28;20038;-91
2023/01/24 00:55:23;;;;;;;17.17;9.50;;;;;;;;;;4998716;28;20117;-89
2023/01/24 00:57:53;;;;;;;16.40;10.15;;;;;;;;;;4998883;28;20497;-92
2023/01/24 01:00:25;;;;;;;18.90;10.80;;;;;;;;;;4999051;28;20022;-90
2023/01/24 01:02:51;;;;;;;16.42;10.02;;;;;;;;;;4998560;28;20040;-88
2023/01/24 01:11:03;;;;;;;17.98;9.57;;;;;;;;;;5948553;23;20180;-92
2023/01/24 01:13:35;;;;;;;14.93;9.10;;;;;;;;;;4979347;28;20045;-91
2023/01/24 01:16:05;;;;;;;17.13;10.07;;;;;;;;;;4979257;28;20034;-91
2023/01/24 01:18:31;;;;;;;15.85;9.70;;;;;;;;;;4979646;28;20027;-91
2023/01/24 01:21:14;;;;;;;18.50;11.32;;;;;;;;;;4978766;28;20402;-91
2023/01/24 01:23:43;;;;;;;14.52;8.88;;;;;;;;;;4978927;28;20031;-91
2023/01/24 01:26:18;;;;;;;17.20;10.18;;;;;;;;;;4978933;28;20023;-90
2023/01/24 01:28:46;;;;;;;17.80;10.77;;;;;;;;;;4979099;28;20117;-90
2023/01/24 01:31:13;;;;;;;18.08;10.10;;;;;;;;;;4978759;28;20057;-90
2023/01/24 01:33:39;;;;;;;17.05;9.90;;;;;;;;;;4978761;28;20391;-92
2023/01/24 01:36:05;;;;;;;16.05;9.57;;;;;;;;;;4978545;28;20026;-91
2023/01/24 01:38:31;;;;;;;18.80;10.38;;;;;;;;;;4981924;28;20042;-91
2023/01/24 01:40:57;;;;;;;17.40;10.13;;;;;;;;;;4988164;28;20383;-88
2023/01/24 01:43:25;;;;;;;19.88;11.48;;;;;;;;;;4978536;28;20037;-91
2023/01/24 01:45:58;;;;;;;17.95;11.15;;;;;;;;;;4978706;28;20022;-90
2023/01/24 01:48:42;;;;;;;17.23;9.90;;;;;;;;;;4978680;28;20202;-90
2023/01/24 01:51:21;;;;;;;18.23;11.32;;;;;;;;;;4978581;28;20026;-91
2023/01/24 01:53:48;;;;;;;18.05;10.98;;;;;;;;;;4977987;28;20104;-90
2023/01/24 01:56:24;;;;;;;16.75;10.30;;;;;;;;;;4978350;28;20045;-91
2023/01/24 01:58:50;;;;;;;16.92;9.23;;;;;;;;;;4978862;28;20030;-88
2023/01/24 02:01:17;;;;;;;18.38;10.80;;;;;;;;;;4979099;28;20479;-88
2023/01/24 02:04:12;;;;;;;17.58;9.75;;;;;;;;;;4979473;28;20033;-89
2023/01/24 02:06:46;;;;;;;18.60;10.23;;;;;;;;;;4968004;28;20041;-90
2023/01/24 02:09:14;;;;;;;16.48;10.18;;;;;;;;;;4986771;28;20026;-87
2023/01/24 02:11:41;;;;;;;16.75;10.48;;;;;;;;;;4983985;28;20061;-90
2023/01/24 02:16:57;;;;;;;15.75;9.65;;;;;;;;;;4976602;28;20078;-91
2023/01/24 02:19:42;;;;;;;14.93;9.57;;;;;;;;;;4963987;28;20038;-91
2023/01/24 02:22:28;;;;;;;16.10;10.23;;;;;;;;;;4974778;28;20015;-91
2023/01/24 02:25:18;;;;;;;15.23;9.77;;;;;;;;;;4959507;28;20046;-91
2023/01/24 02:27:50;;;;;;;15.05;9.70;;;;;;;;;;4913770;28;20042;-90
2023/01/24 02:30:19;;;;;;;16.65;10.13;;;;;;;;;;4967517;28;20094;-90
2023/01/24 02:32:51;;;;;;;18.88;9.45;;;;;;;;;;4963500;28;20041;-92
2023/01/24 02:35:30;;;;;;;15.25;9.23;;;;;;;;;;4959821;28;20022;-91
2023/01/24 02:38:09;;;;;;;14.70;9.45;;;;;;;;;;4958644;28;20026;-92
2023/01/24 02:40:35;;;;;;;15.00;9.05;;;;;;;;;;4958219;28;20038;-91
2023/01/24 02:43:14;;;;;;;17.02;9.80;;;;;;;;;;4958234;28;20058;-91
2023/01/24 02:45:40;;;;;;;17.40;9.75;;;;;;;;;;4957740;28;20500;-89
2023/01/24 02:48:06;;;;;;;16.00;9.95;;;;;;;;;;4958053;28;20503;-91
2023/01/24 02:53:29;;;;;;;16.38;9.65;;;;;;;;;;4958326;28;20566;-91
2023/01/24 02:53:32;;;;;;;15.98;9.85;;;;;;;;;;4975255;28;20506;-88
2023/01/24 02:58:57;;;;;;;15.40;8.88;;;;;;;;;;4903636;28;20172;-90
2023/01/24 03:01:24;;;;;;;16.58;9.30;;;;;;;;;;4956708;28;20063;-91
2023/01/24 03:03:50;;;;;;;17.02;9.75;;;;;;;;;;4957842;28;20054;-88
2023/01/24 03:06:17;;;;;;;15.77;9.32;;;;;;;;;;4957201;28;20026;-88
2023/01/24 03:08:49;;;;;;;14.15;9.23;;;;;;;;;;4957683;28;20081;-91
2023/01/24 03:11:18;;;;;;;14.35;9.05;;;;;;;;;;4957234;28;20043;-92
2023/01/24 03:35:58;;;;;;;20.77;11.65;;;;;;;;;;4979479;28;20053;-93
2023/01/24 03:41:09;;;;;;;19.10;11.27;;;;;;;;;;4979019;28;20054;-88
2023/01/24 03:47:01;;;;;;;16.10;9.57;;;;;;;;;;4939171;29;20380;-88
2023/01/24 03:52:28;;;;;;;19.95;10.27;;;;;;;;;;4993867;28;20112;-89
2023/01/24 03:55:00;;;;;;;15.10;8.65;;;;;;;;;;4982397;28;20033;-91
2023/01/24 03:57:27;;;;;;;14.20;8.90;;;;;;;;;;4982234;28;20022;-92
2023/01/24 03:59:54;;;;;;;16.02;9.32;;;;;;;;;;4982294;28;20046;-88
2023/01/24 04:02:26;;;;;;;16.05;8.90;;;;;;;;;;4997559;28;20041;-88
2023/01/24 04:07:37;;;;;;;14.18;8.60;;;;;;;;;;4998251;28;20061;-91
2023/01/24 04:10:03;;;;;;;18.13;9.77;;;;;;;;;;4975596;28;20045;-87
2023/01/24 04:12:32;;;;;;;16.48;9.95;;;;;;;;;;4980868;28;20030;-87
2023/01/24 04:15:01;;;;;;;22.40;12.40;;;;;;;;;;4982532;28;20026;-91
2023/01/24 04:17:27;;;;;;;22.52;12.88;;;;;;;;;;4980215;28;20030;-86
2023/01/24 04:19:53;;;;;;;23.67;13.38;;;;;;;;;;4979939;28;20034;-88
2023/01/24 04:22:20;;;;;;;19.52;12.15;;;;;;;;;;4980175;28;20073;-88
2023/01/24 04:24:46;;;;;;;22.10;12.88;;;;;;;;;;4983689;28;20039;-91
2023/01/24 04:27:18;;;;;;;23.05;13.30;;;;;;;;;;4984012;28;20037;-90
2023/01/24 04:29:44;;;;;;;24.02;12.73;;;;;;;;;;4980780;28;20030;-88
2023/01/24 04:32:19;;;;;;;21.77;12.98;;;;;;;;;;4979956;28;20789;-90
2023/01/24 04:34:51;;;;;;;22.15;13.63;;;;;;;;;;4978009;28;20030;-90
2023/01/24 04:37:17;;;;;;;22.95;14.15;;;;;;;;;;4977246;28;20023;-91
2023/01/24 04:39:44;;;;;;;23.30;13.07;;;;;;;;;;4977766;28;20027;-88
2023/01/24 04:42:15;;;;;;;22.60;13.80;;;;;;;;;;4978007;28;20111;-88
2023/01/24 04:44:47;;;;;;;20.10;11.88;;;;;;;;;;4977690;28;20077;-92
2023/01/24 04:47:22;;;;;;;17.80;10.48;;;;;;;;;;4978078;28;20046;-87
2023/01/24 04:49:49;;;;;;;16.63;9.82;;;;;;;;;;4977592;28;20018;-92
2023/01/24 04:52:18;;;;;;;14.50;9.10;;;;;;;;;;4977426;28;20042;-91
2023/01/24 04:54:44;;;;;;;15.55;8.80;;;;;;;;;;4977840;28;20045;-91
2023/01/24 04:57:13;;;;;;;13.68;7.80;;;;;;;;;;4977464;28;20105;-87
2023/01/24 04:59:45;;;;;;;15.68;8.75;;;;;;;;;;4977068;28;20192;-91
2023/01/24 05:02:11;;;;;;;13.32;8.43;;;;;;;;;;4977449;28;20545;-87
2023/01/24 05:04:40;;;;;;;12.98;7.28;;;;;;;;;;4977102;28;20125;-91
2023/01/24 05:07:07;;;;;;;13.57;8.50;;;;;;;;;;4977350;28;20479;-88
2023/01/24 05:09:33;;;;;;;14.35;7.60;;;;;;;;;;4974706;28;20105;-91
2023/01/24 05:12:05;;;;;;;15.93;9.43;;;;;;;;;;4977449;28;20081;-92
2023/01/24 05:14:40;;;;;;;12.40;8.18;;;;;;;;;;4989487;28;20030;-91
2023/01/24 05:17:07;;;;;;;13.65;8.50;;;;;;;;;;4985720;28;20026;-91
2023/01/24 05:19:33;;;;;;;13.98;8.40;;;;;;;;;;4979140;28;20026;-90
2023/01/24 05:21:59;;;;;;;13.75;8.52;;;;;;;;;;4977504;28;20030;-91
2023/01/24 05:24:25;;;;;;;13.20;8.25;;;;;;;;;;4977107;28;20033;-88
2023/01/24 05:27:00;;;;;;;16.10;8.70;;;;;;;;;;4976937;28;20030;-91
2023/01/24 05:29:26;;;;;;;15.43;9.38;;;;;;;;;;4976945;28;20026;-88
2023/01/24 05:31:56;;;;;;;15.73;8.70;;;;;;;;;;4976782;28;20026;-90
2023/01/24 05:34:22;;;;;;;14.98;9.10;;;;;;;;;;4979666;28;20030;-89
2023/01/24 05:36:51;;;;;;;13.98;8.80;;;;;;;;;;4987487;28;20030;-92
2023/01/24 05:39:23;;;;;;;17.50;9.02;;;;;;;;;;4983904;28;20038;-92
2023/01/24 05:41:58;;;;;;;13.77;8.82;;;;;;;;;;4976752;28;20607;-92
2023/01/24 05:44:24;;;;;;;15.15;8.50;;;;;;;;;;4977500;28;20058;-92
2023/01/24 05:46:53;;;;;;;14.68;9.00;;;;;;;;;;4977530;28;20061;-93
2023/01/24 05:49:22;;;;;;;15.13;9.10;;;;;;;;;;4975832;28;20034;-92
2023/01/24 05:51:52;;;;;;;19.90;12.57;;;;;;;;;;4978451;28;20033;-90
2023/01/24 05:54:46;;;;;;;27.70;15.90;;;;;;;;;;4995450;28;20083;-89
2023/01/24 05:57:15;;;;;;;21.48;14.20;;;;;;;;;;4973755;28;20031;-88
2023/01/24 05:59:44;;;;;;;29.02;17.42;;;;;;;;;;4976278;28;20054;-89
2023/01/24 06:02:22;;;;;;;28.05;17.35;;;;;;;;;;4965485;28;20037;-89
2023/01/24 06:04:54;;;;;;;27.27;17.52;;;;;;;;;;4958602;28;20077;-90
2023/01/24 06:07:23;;;;;;;25.98;14.93;;;;;;;;;;4958535;28;20022;-90
2023/01/24 06:09:49;;;;;;;27.55;16.67;;;;;;;;;;4958460;28;20027;-89
2023/01/24 06:12:15;;;;;;;31.55;17.63;;;;;;;;;;4958807;28;20077;-86
2023/01/24 06:14:41;;;;;;;31.83;19.02;;;;;;;;;;4958819;28;20475;-85
2023/01/24 06:23:31;;;;;;;28.35;16.13;;;;;;;;;;5028218;23;20111;-91
2023/01/24 06:25:57;;;;;;;31.85;17.98;;;;;;;;;;4971496;28;20066;-90
2023/01/24 06:28:23;;;;;;;33.30;17.65;;;;;;;;;;4955692;29;20420;-86
2023/01/24 06:31:14;;;;;;;32.80;17.98;;;;;;;;;;4939421;29;20038;-86
2023/01/24 06:34:03;;;;;;;36.92;19.85;;;;;;;;;;4938817;29;20090;-82
2023/01/24 06:36:32;;;;;;;36.72;19.33;;;;;;;;;;4909615;29;20079;-85
2023/01/24 06:38:58;;;;;;;33.28;17.80;;;;;;;;;;4951064;29;20034;-85
2023/01/24 06:41:24;;;;;;;30.30;17.63;;;;;;;;;;4949334;29;20051;-86
2023/01/24 06:43:51;;;;;;;27.73;16.58;;;;;;;;;;4949535;29;20032;-86
2023/01/24 06:46:17;;;;;;;24.55;14.43;;;;;;;;;;4951508;29;20027;-86
2023/01/24 06:48:44;;;;;;;22.70;13.13;;;;;;;;;;4936424;29;20099;-86
2023/01/24 06:51:10;;;;;;;24.27;14.38;;;;;;;;;;4951565;29;20070;-86
2023/01/24 06:53:36;;;;;;;20.02;12.20;;;;;;;;;;4935451;29;20055;-87
2023/01/24 06:56:02;;;;;;;21.70;13.35;;;;;;;;;;4949359;29;20121;-85
2023/01/24 06:58:29;;;;;;;19.77;11.93;;;;;;;;;;4917873;29;20036;-85
2023/01/24 07:00:55;;;;;;;20.63;12.18;;;;;;;;;;4948999;28;20023;-88
2023/01/24 07:03:21;;;;;;;18.45;11.82;;;;;;;;;;4949262;29;20034;-86
2023/01/24 07:05:48;;;;;;;18.73;11.65;;;;;;;;;;4935034;29;20106;-86
2023/01/24 07:08:14;;;;;;;21.70;13.35;;;;;;;;;;4950781;29;20027;-86
2023/01/24 07:10:40;;;;;;;19.67;12.13;;;;;;;;;;4936419;29;20114;-86
2023/01/24 07:13:07;;;;;;;18.50;12.35;;;;;;;;;;4951141;29;20040;-87
2023/01/24 07:15:33;;;;;;;21.27;11.55;;;;;;;;;;4951340;29;20127;-86
2023/01/24 07:18:09;;;;;;;17.88;11.88;;;;;;;;;;4951327;29;20035;-87
2023/01/24 07:20:38;;;;;;;17.15;11.95;;;;;;;;;;4919431;29;20028;-89
2023/01/24 07:29:11;;;;;;;16.17;10.15;;;;;;;;;;4936566;29;20099;-87
2023/01/24 07:31:38;;;;;;;16.85;10.48;;;;;;;;;;4935950;29;20477;-88
2023/01/24 07:34:04;;;;;;;18.95;11.95;;;;;;;;;;4951776;29;20215;-88
2023/01/24 07:36:30;;;;;;;18.00;10.10;;;;;;;;;;4952823;29;20448;-88
2023/01/24 07:38:57;;;;;;;17.23;10.55;;;;;;;;;;4919471;29;20117;-88
2023/01/24 07:41:23;;;;;;;13.98;9.63;;;;;;;;;;4958197;28;20035;-88
2023/01/24 07:43:49;;;;;;;15.15;10.45;;;;;;;;;;4939096;29;20038;-88
2023/01/24 07:46:18;;;;;;;13.82;9.40;;;;;;;;;;4942690;29;20051;-88
2023/01/24 07:48:57;;;;;;;16.13;10.60;;;;;;;;;;4946506;29;20126;-89
2023/01/24 07:51:24;;;;;;;16.52;12.48;;;;;;;;;;4931975;29;20031;-88
2023/01/24 07:53:50;;;;;;;17.77;10.82;;;;;;;;;;4936745;29;20043;-88
2023/01/24 07:56:16;;;;;;;15.02;10.63;;;;;;;;;;4938048;29;20059;-88
2023/01/24 07:58:42;;;;;;;12.73;10.30;;;;;;;;;;4938197;29;20122;-89
2023/01/24 08:01:08;;;;;;;12.82;10.27;;;;;;;;;;4938107;29;20028;-87
2023/01/24 08:03:35;;;;;;;16.00;11.20;;;;;;;;;;4937855;29;20028;-89
2023/01/24 08:06:03;;;;;;;13.60;9.85;;;;;;;;;;4938623;29;20480;-88
2023/01/24 08:08:30;;;;;;;11.70;10.02;;;;;;;;;;4939010;29;20031;-88
2023/01/24 08:10:56;;;;;;;11.70;9.70;;;;;;;;;;4938016;29;20046;-89
2023/01/24 08:13:22;;;;;;;11.27;9.95;;;;;;;;;;4941319;29;20036;-88
2023/01/24 08:15:48;;;;;;;11.32;9.65;;;;;;;;;;4958788;29;20023;-88
2023/01/24 08:18:14;;;;;;;11.40;9.20;;;;;;;;;;4941363;29;20031;-88
2023/01/24 08:20:40;;;;;;;10.35;9.25;;;;;;;;;;4941380;29;20039;-91
2023/01/24 08:23:06;;;;;;;12.15;10.02;;;;;;;;;;4941169;29;20034;-88
2023/01/24 08:25:35;;;;;;;10.90;8.98;;;;;;;;;;4941445;29;20028;-90
2023/01/24 08:28:01;;;;;;;11.02;8.98;;;;;;;;;;4957792;29;20034;-88
2023/01/24 08:30:27;;;;;;;11.77;9.80;;;;;;;;;;4942030;29;20090;-89
2023/01/24 08:33:03;;;;;;;9.90;8.57;;;;;;;;;;4941627;29;20050;-88
2023/01/24 08:35:36;;;;;;;11.77;8.38;;;;;;;;;;4942461;29;20035;-89
2023/01/24 08:38:05;;;;;;;11.45;8.80;;;;;;;;;;4943005;29;20178;-90
2023/01/24 08:40:31;;;;;;;9.85;8.38;;;;;;;;;;4943034;29;20023;-88
2023/01/24 08:43:00;;;;;;;10.32;8.88;;;;;;;;;;4942230;29;20027;-87
2023/01/24 08:45:26;;;;;;;11.10;8.73;;;;;;;;;;4942536;29;20206;-88
2023/01/24 08:47:56;;;;;;;9.82;8.30;;;;;;;;;;4942140;29;20031;-88
2023/01/24 08:50:22;;;;;;;9.60;7.88;;;;;;;;;;4942290;29;20074;-88
2023/01/24 08:52:48;;;;;;;10.48;8.40;;;;;;;;;;4943040;29;20039;-87
2023/01/24 08:55:17;;;;;;;11.13;9.68;;;;;;;;;;4945838;29;20027;-88
2023/01/24 09:03:04;;;;;;;11.73;9.90;;;;;;;;;;6059571;23;20025;-88
2023/01/24 09:05:42;;;;;;;;;;;;;;;;;;;;;
2023/01/24 09:08:15;;;;;;;12.13;10.20;;;;;;;;;;4845065;29;20052;-88
2023/01/24 09:10:41;;;;;;;11.20;9.40;;;;;;;;;;4853710;29;20064;-88
2023/01/24 09:29:38;;;;;;;12.00;10.38;;;;;;;;;;5755864;23;20189;-90
2023/01/24 09:32:11;;;;;;;12.00;9.13;;;;;;;;;;4982031;28;20081;-90
2023/01/24 09:34:46;;;;;;;12.23;9.98;;;;;;;;;;4972764;28;20081;-89
2023/01/24 09:37:16;;;;;;;11.48;9.90;;;;;;;;;;4947132;28;20030;-89
2023/01/24 09:40:14;;;;;;;12.05;9.63;;;;;;;;;;4976749;28;20052;-90
2023/01/24 09:43:00;;;;;;;11.80;9.32;;;;;;;;;;4906823;29;20091;-89
2023/01/24 09:48:53;;;;;;;12.02;10.10;;;;;;;;;;4902393;29;20041;-89
2023/01/24 09:51:29;;;;;;;12.98;10.43;;;;;;;;;;4901491;29;20520;-89
2023/01/24 09:53:57;;;;;;;11.75;10.05;;;;;;;;;;4899606;29;20055;-90
2023/01/24 09:56:31;;;;;;;13.25;10.95;;;;;;;;;;4899667;29;20035;-89
2023/01/24 09:59:12;;;;;;;11.23;9.48;;;;;;;;;;4888258;29;20039;-89
2023/01/24 10:01:43;;;;;;;11.90;9.68;;;;;;;;;;4977025;28;20030;-89
2023/01/24 10:04:39;;;;;;;12.48;9.98;;;;;;;;;;4990565;28;20417;-89
2023/01/24 10:07:21;;;;;;;12.73;10.45;;;;;;;;;;4968111;28;20118;-88
2023/01/24 10:10:03;;;;;;;12.02;9.77;;;;;;;;;;4979063;28;20468;-89
2023/01/24 10:12:36;;;;;;;12.23;10.00;;;;;;;;;;4963566;28;20042;-89
2023/01/24 10:15:29;;;;;;;11.77;9.70;;;;;;;;;;4981713;28;20034;-89
2023/01/24 10:18:17;;;;;;;12.27;9.27;;;;;;;;;;4977920;28;20034;-89
2023/01/24 10:20:55;;;;;;;13.32;10.80;;;;;;;;;;4976270;28;20176;-88
2023/01/24 10:23:33;;;;;;;12.98;10.25;;;;;;;;;;4995638;28;20034;-90
2023/01/24 10:26:11;;;;;;;12.50;10.20;;;;;;;;;;4972498;28;20050;-89
2023/01/24 10:28:43;;;;;;;13.10;10.75;;;;;;;;;;4976181;28;20034;-91
2023/01/24 10:31:19;;;;;;;14.82;10.95;;;;;;;;;;4976703;28;20050;-89
2023/01/24 10:33:53;;;;;;;14.75;11.23;;;;;;;;;;4998037;28;20042;-92
2023/01/24 10:36:23;;;;;;;14.20;11.43;;;;;;;;;;4985357;28;20034;-89
2023/01/24 10:38:49;;;;;;;13.65;10.07;;;;;;;;;;4994864;28;20033;-89
2023/01/24 10:41:22;;;;;;;16.90;11.70;;;;;;;;;;4978593;28;20045;-90
2023/01/24 10:44:00;;;;;;;13.70;10.98;;;;;;;;;;4975729;28;20488;-91
2023/01/24 10:46:35;;;;;;;12.98;10.10;;;;;;;;;;4976533;28;20034;-90
2023/01/24 10:49:02;;;;;;;13.05;10.73;;;;;;;;;;4976132;28;20030;-89
2023/01/24 10:51:28;;;;;;;14.40;10.27;;;;;;;;;;4975849;28;20041;-90
2023/01/24 10:54:17;;;;;;;16.00;11.85;;;;;;;;;;4975546;28;20411;-90
2023/01/24 10:56:43;;;;;;;15.07;10.93;;;;;;;;;;4974668;28;20034;-89
2023/01/24 10:59:15;;;;;;;14.40;10.40;;;;;;;;;;4976286;28;20038;-90
2023/01/24 11:01:41;;;;;;;14.82;10.82;;;;;;;;;;4975626;28;20093;-90
2023/01/24 11:04:24;;;;;;;15.20;11.35;;;;;;;;;;4975676;28;20029;-89
2023/01/24 11:06:54;;;;;;;16.27;11.30;;;;;;;;;;4961514;28;20045;-91
2023/01/24 11:09:23;;;;;;;16.08;12.02;;;;;;;;;;4959760;28;20113;-91
2023/01/24 11:11:56;;;;;;;16.10;11.98;;;;;;;;;;4960571;28;20034;-91
2023/01/24 11:14:27;;;;;;;16.30;11.43;;;;;;;;;;4956112;28;20030;-90
2023/01/24 11:16:55;;;;;;;15.93;11.63;;;;;;;;;;4971415;28;20037;-91
2023/01/24 11:19:31;;;;;;;17.67;11.32;;;;;;;;;;4975548;28;20053;-90
2023/01/24 11:21:59;;;;;;;15.23;11.27;;;;;;;;;;4974453;28;20184;-90
2023/01/24 11:24:29;;;;;;;15.98;11.20;;;;;;;;;;4975551;28;20026;-89
2023/01/24 11:26:58;;;;;;;15.88;11.25;;;;;;;;;;4978527;28;20050;-90
2023/01/24 11:29:34;;;;;;;15.13;11.43;;;;;;;;;;4993005;28;20105;-88
2023/01/24 11:32:09;;;;;;;15.48;11.77;;;;;;;;;;4961433;28;20504;-90
2023/01/24 11:34:58;;;;;;;16.35;11.40;;;;;;;;;;4962552;28;20033;-89
2023/01/24 11:43:50;;;;;;;16.85;11.98;;;;;;;;;;5100009;23;20059;-93
2023/01/24 11:46:30;;;;;;;15.27;11.57;;;;;;;;;;4956114;28;20024;-92
2023/01/24 11:48:57;;;;;;;17.67;12.13;;;;;;;;;;4959277;29;20087;-89
2023/01/24 11:51:39;;;;;;;14.43;11.25;;;;;;;;;;4946378;29;20122;-91
2023/01/24 11:54:24;;;;;;;15.25;11.52;;;;;;;;;;4943939;29;20043;-90
2023/01/24 11:56:56;;;;;;;16.30;12.35;;;;;;;;;;4942214;29;20034;-89
2023/01/24 11:59:41;;;;;;;14.50;11.48;;;;;;;;;;4942295;29;20031;-89
2023/01/24 12:02:13;;;;;;;15.07;12.60;;;;;;;;;;4940925;29;20031;-90
2023/01/24 12:04:48;;;;;;;14.80;11.32;;;;;;;;;;4939936;29;20401;-89
2023/01/24 12:07:40;;;;;;;14.82;11.63;;;;;;;;;;4953274;28;20061;-90
2023/01/24 12:10:19;;;;;;;15.15;11.73;;;;;;;;;;4959322;28;20027;-91
2023/01/24 12:12:53;;;;;;;14.88;12.43;;;;;;;;;;4958512;28;20049;-92
2023/01/24 12:15:38;;;;;;;15.57;11.90;;;;;;;;;;4958728;28;20074;-91
2023/01/24 12:18:22;;;;;;;16.42;11.55;;;;;;;;;;4920116;29;20028;-90
2023/01/24 12:21:10;;;;;;;16.38;12.18;;;;;;;;;;4922454;28;20039;-90
2023/01/24 12:23:55;;;;;;;14.40;12.20;;;;;;;;;;4939711;29;20032;-89
2023/01/24 12:26:53;;;;;;;16.60;12.73;;;;;;;;;;4939306;29;20046;-91
2023/01/24 12:29:32;;;;;;;15.80;11.38;;;;;;;;;;4887600;29;20039;-89
2023/01/24 12:32:03;;;;;;;16.88;12.35;;;;;;;;;;4939024;29;20066;-89
2023/01/24 12:34:37;;;;;;;16.95;12.00;;;;;;;;;;4939228;29;20042;-88
2023/01/24 12:37:12;;;;;;;14.48;11.10;;;;;;;;;;4939942;29;20069;-90
2023/01/24 12:40:04;;;;;;;16.15;11.50;;;;;;;;;;4939247;29;20027;-89
2023/01/24 12:43:18;;;;;;;16.52;11.57;;;;;;;;;;4937559;28;20037;-92
2023/01/24 12:46:22;;;;;;;15.57;10.65;;;;;;;;;;4888285;29;20044;-88
2023/01/24 12:48:56;;;;;;;16.40;11.65;;;;;;;;;;4891306;29;20044;-88
2023/01/24 12:51:47;;;;;;;19.42;12.43;;;;;;;;;;4900885;29;20029;-93
2023/01/24 12:54:15;;;;;;;18.55;12.35;;;;;;;;;;4872632;29;20505;-87
2023/01/24 12:57:01;;;;;;;18.92;13.27;;;;;;;;;;4866025;29;20471;-87
2023/01/24 12:59:36;;;;;;;20.00;13.25;;;;;;;;;;4864006;29;20556;-90
2023/01/24 13:02:32;;;;;;;19.30;13.55;;;;;;;;;;4919104;29;20037;-89
2023/01/24 13:05:26;;;;;;;18.58;12.95;;;;;;;;;;4948795;29;20035;-89
2023/01/24 13:07:53;;;;;;;;;;;;;;;;;;5006134;23;20043;-92
2023/01/24 13:10:19;;;;;;;20.73;13.63;;;;;;;;;;4971518;28;20437;-87
2023/01/24 13:12:46;;;;;;;21.23;13.10;;;;;;;;;;4951787;29;20054;-86
2023/01/24 13:15:15;;;;;;;20.17;12.93;;;;;;;;;;4963368;29;20019;-86
2023/01/24 13:18:12;;;;;;;18.98;13.27;;;;;;;;;;4964650;28;20038;-87
2023/01/24 13:20:57;;;;;;;22.30;15.15;;;;;;;;;;4938868;29;20039;-90
2023/01/24 13:23:35;;;;;;;18.38;12.55;;;;;;;;;;4938804;29;20039;-91
2023/01/24 13:26:16;;;;;;;21.60;14.63;;;;;;;;;;4956301;28;20032;-88
2023/01/24 13:29:01;;;;;;;21.13;13.82;;;;;;;;;;4938025;29;20075;-85
2023/01/24 13:31:49;;;;;;;22.40;15.32;;;;;;;;;;4942459;28;20026;-88
2023/01/24 13:34:27;;;;;;;18.85;12.07;;;;;;;;;;4960023;28;20034;-86
2023/01/24 13:36:53;;;;;;;17.60;12.25;;;;;;;;;;4959084;28;20109;-86
2023/01/24 13:39:32;;;;;;;17.27;12.25;;;;;;;;;;4960278;28;20027;-87
2023/01/24 13:42:02;;;;;;;18.23;12.32;;;;;;;;;;4956785;29;20039;-87
2023/01/24 13:44:35;;;;;;;19.67;12.82;;;;;;;;;;4948295;29;20031;-88
2023/01/24 13:47:24;;;;;;;20.17;13.63;;;;;;;;;;4940402;29;20503;-88
2023/01/24 13:50:01;;;;;;;20.23;12.77;;;;;;;;;;4942947;29;20043;-88
2023/01/24 13:52:35;;;;;;;21.40;13.57;;;;;;;;;;4949510;28;20054;-90
2023/01/24 13:55:23;;;;;;;22.98;14.60;;;;;;;;;;4959209;28;20078;-91
2023/01/24 13:58:09;;;;;;;21.70;13.50;;;;;;;;;;4959251;28;20047;-89
2023/01/24 14:00:51;;;;;;;22.48;13.85;;;;;;;;;;4957786;28;20514;-90
2023/01/24 14:03:22;;;;;;;20.83;13.40;;;;;;;;;;4942374;29;20043;-91
2023/01/24 14:05:57;;;;;;;22.45;13.93;;;;;;;;;;4942028;29;20087;-96
2023/01/24 14:08:37;;;;;;;23.02;14.93;;;;;;;;;;4939726;28;20554;-92
2023/01/24 14:11:09;;;;;;;27.38;14.93;;;;;;;;;;4938372;29;20071;-92
2023/01/24 14:13:47;;;;;;;23.15;13.82;;;;;;;;;;4937167;29;20043;-86
2023/01/24 14:16:13;;;;;;;24.48;15.43;;;;;;;;;;4937869;29;20034;-87
2023/01/24 14:18:59;;;;;;;25.65;14.85;;;;;;;;;;4937640;29;20118;-85
2023/01/24 14:21:28;;;;;;;24.38;14.20;;;;;;;;;;4937991;28;20462;-86
2023/01/24 14:24:06;;;;;;;22.98;14.80;;;;;;;;;;4956953;28;20042;-89
2023/01/24 14:26:35;;;;;;;25.20;14.15;;;;;;;;;;4956377;28;20031;-86
2023/01/24 14:29:03;;;;;;;24.10;15.07;;;;;;;;;;4956477;28;20027;-88
2023/01/24 14:31:31;;;;;;;25.73;15.93;;;;;;;;;;4957539;28;20037;-89
2023/01/24 14:37:10;;;;;;;28.27;17.75;;;;;;;;;;4957674;28;20081;-90
2023/01/24 14:39:36;;;;;;;31.90;17.67;;;;;;;;;;4940850;28;20077;-88
2023/01/24 14:44:53;;;;;;;28.33;16.92;;;;;;;;;;5021520;23;20066;-87
2023/01/24 14:47:21;;;;;;;31.48;17.90;;;;;;;;;;4965640;28;20022;-91
2023/01/24 14:49:49;;;;;;;32.30;18.85;;;;;;;;;;4960402;28;20043;-88
2023/01/24 14:52:17;;;;;;;28.75;17.30;;;;;;;;;;4957958;28;20045;-87
2023/01/24 14:55:09;;;;;;;28.70;17.83;;;;;;;;;;4958340;28;20131;-91
2023/01/24 15:01:07;;;;;;;28.73;17.65;;;;;;;;;;4879383;29;20039;-87
2023/01/24 15:03:37;;;;;;;31.35;19.38;;;;;;;;;;4878416;29;20058;-89
2023/01/24 15:06:05;;;;;;;28.42;17.52;;;;;;;;;;4862863;29;20441;-89
2023/01/24 15:08:35;;;;;;;29.80;18.70;;;;;;;;;;4894651;29;20047;-91
2023/01/24 15:11:03;;;;;;;29.77;18.15;;;;;;;;;;4938582;29;20106;-89
2023/01/24 15:13:37;;;;;;;29.98;19.13;;;;;;;;;;4938297;29;20046;-87
2023/01/24 15:16:04;;;;;;;26.55;17.42;;;;;;;;;;4938709;29;20031;-90
2023/01/24 15:18:36;;;;;;;29.92;17.20;;;;;;;;;;4952309;28;20510;-88
2023/01/24 15:21:06;;;;;;;30.98;19.52;;;;;;;;;;4957638;28;20029;-89
2023/01/24 15:23:35;;;;;;;31.75;18.60;;;;;;;;;;4957658;28;20023;-91
2023/01/24 15:26:20;;;;;;;31.15;19.55;;;;;;;;;;4958475;28;20026;-89
2023/01/24 15:28:49;;;;;;;33.65;18.83;;;;;;;;;;4959059;28;20390;-89
2023/01/24 15:31:19;;;;;;;36.05;20.58;;;;;;;;;;4957945;28;20042;-88
2023/01/24 15:33:58;;;;;;;31.80;18.58;;;;;;;;;;4959759;28;20051;-90
2023/01/24 15:36:39;;;;;;;37.33;21.45;;;;;;;;;;4959936;28;20054;-90
2023/01/24 15:39:13;;;;;;;37.90;21.40;;;;;;;;;;4976832;28;20027;-90
2023/01/24 15:44:32;;;;;;;32.17;18.98;;;;;;;;;;4921273;29;20146;-90
2023/01/24 15:51:05;;;;;;;29.60;17.80;;;;;;;;;;4949640;29;20038;-91
2023/01/24 15:53:15;;;;;;;29.95;17.92;;;;;;;;;;4955182;28;20039;-91
2023/01/24 15:55:45;;;;;;;30.60;17.40;;;;;;;;;;4938276;29;20039;-91
2023/01/24 15:58:17;;;;;;;32.33;17.52;;;;;;;;;;4938383;29;20030;-90
2023/01/24 16:01:12;;;;;;;33.28;18.10;;;;;;;;;;4938092;29;20432;-91
2023/01/24 16:03:38;;;;;;;39.97;19.15;;;;;;;;;;4936772;28;20118;-91
2023/01/24 16:06:18;;;;;;;33.10;19.17;;;;;;;;;;4937905;29;20507;-91
2023/01/24 16:08:44;;;;;;;37.80;20.63;;;;;;;;;;4937939;29;20054;-87
2023/01/24 16:11:10;;;;;;;37.40;21.48;;;;;;;;;;4937959;29;20020;-88
2023/01/24 16:13:38;;;;;;;34.97;20.10;;;;;;;;;;4938361;29;20126;-91
2023/01/24 16:16:09;;;;;;;35.90;20.30;;;;;;;;;;4938313;29;20027;-89
2023/01/24 16:18:38;;;;;;;40.50;20.75;;;;;;;;;;4937695;29;20436;-92
2023/01/24 16:21:04;;;;;;;36.03;19.33;;;;;;;;;;4938034;29;20059;-91
2023/01/24 16:23:30;;;;;;;32.08;18.42;;;;;;;;;;4950580;28;20476;-88
2023/01/24 16:25:57;;;;;;;33.13;18.73;;;;;;;;;;4956994;28;20023;-88
2023/01/24 16:28:28;;;;;;;34.90;19.23;;;;;;;;;;4957347;28;20042;-90
2023/01/24 16:31:05;;;;;;;32.28;19.67;;;;;;;;;;4977431;28;20027;-93
2023/01/24 16:33:31;;;;;;;39.20;21.25;;;;;;;;;;4945019;28;20054;-90
2023/01/24 16:35:58;;;;;;;37.83;20.63;;;;;;;;;;4979394;28;20472;-87
2023/01/24 16:40:53;;;;;;;47.90;23.65;;;;;;;;;;5014914;28;20799;-89